Amherst, NH

7:11 AM EST on January 30, 2015 (GMT -0500)
Amherst Hills | Change Station
CLOSE
Current Station
Personal Weather Station
Location: Amherst, NH
Elevation: 325 ft
Nearby Weather Stations
Active Advisory: Winter Weather Advisory Active Notice: Public Information Statement

Elev 325 ft 42.86 °N, 71.62 °W | Updated 1 minute ago

Overcast
Overcast
24.9 °F
Feels Like 25 °F
N
0.0
Wind Variable Wind from SE
Gusts 0.0 mph

Today
High -- | Low -- °F
--% Chance of Precip.
Yesterday
High -- | Low -- °F
Precip. -- in
7:03 AM 4:56 PM
Waxing Gibbous, 82% visible
Pressure 30.62 in
Visibility 10.0 miles
Clouds Overcast 1000 ft
Windchill 25 °F
Dew Point 19 °F
Humidity 79%
Rainfall 0.00 in
Snow Depth Not available.
UV 0 out of 12
Pollen .10 out of 12
Air Quality Not available.
Flu Activity Not available.
METAR KASH 301151Z AUTO 00000KT 10SM OVC010 M03/M04 A2986 RMK AO2 FZRANO 58017 60000 T10331038 11027 21038 SLP368 $

More Conditions Fewer Conditions

Pressure 30.62 in
Visibility 10.0 miles
Clouds Overcast 1000 ft
Windchill 25 °F
Dew Point 19 °F
Humidity 79%
Rainfall 0.00 in
Snow Depth Not available.
UV 0 out of 12
Pollen .10 out of 12
Air Quality Not available.
Flu Activity Not available.
METAR KASH 301151Z AUTO 00000KT 10SM OVC010 M03/M04 A2986 RMK AO2 FZRANO 58017 60000 T10331038 11027 21038 SLP368 $

More Conditions Fewer Conditions

10-Day Weather Forecast

Almanac

Astronomy

Jan. 30, 2015 Rise Set
Actual Time
Civil Twilight
Nautical Twilight
Astronomical Twilight
Moon
Length of Visible Light
Length of Day
Tomorrow will be .
, % of the Moon is Illuminated

Today's Extremes

State Highs State Lows

Community

WunderPhotos

Upload Photos

1,791,738 photos uploaded!

WunderBlogs® & News

Nearby

Air Quality

  Air Quality AQ Index Pollutant
Not available.

Snow Depth

Station Depth Elevation

Earthquake Activity

City Distance Mag. Time & Date
Minimum magnitude displayed is 2.5.

Coastal Water Temperatures

Place Temperature

Nearby Weather Stations